Accueil
METAR-TAF:

METAR-TAF

Aéroports :

Aéroport d'Ostende-Bruges

Ostende, Belgique

latitude: 51-12N, longitude: 002-52E, altitude: 4 m

Observation

Le bulletin a été fait il y a 29 minutes, à 14:20 UTC
Vent 11 kt de ouest
Température 20°C
Humidité 56%
Pression 1026 hPa
Visibilité 10 km ou plus
pas de nuages en-dessous de 1500 mètres et pas de cumulonimbus.

METAR: EBOS 221420Z 28011KT CAVOK 20/11 Q1026 NOSIG

Heure: 16:49 (14:49 UTC)

Prévision

Le bulletin a été fait il y a 3 heures et 47 minutes, à 11:02 UTC
Prévision valable du 22 à 12 UTC au 23 à 18 UTC
Vent 8 kt de ouest/nord-ouest
Visibilité 10 km ou plus
pas de nuages en-dessous de 1500 mètres et pas de cumulonimbus.
Temporairement
du 23 à 02 UTC au 23 à 06 UTC
Visibilité: 2000 m
Brouillard mince, brume

TAF: EBOS 221102Z 2212/2318 29008KT CAVOK TEMPO 2302/2306 2000 MIFG BR

Observations et prévisions météorologiques de plus de 4000 aéroports (messages METAR et TAF).

Les stations disponibles sont représentées par des disques jaunes et rouges sur la carte.

Passer la souris dessus pour voir le nom de la station.

Cliquer dessus pour voir les observations et prévisions météorologiques.

Pour changer de carte: cliquez sur les boutons verts avec une croix noire pour zoomer, sur le bouton vert avec un tiret pour effectuer un zoom arrière, ou sur les flèches vertes pour les cartes adjacentes.


METAR-TAF: